createdAt,value
2023-02-02T00:00:27.984Z,3.90
2023-02-02T00:02:56.972Z,3.90
2023-02-02T00:05:25.968Z,3.90
2023-02-02T00:07:54.873Z,4.00
2023-02-02T00:10:25.255Z,4.10
2023-02-02T00:12:54.413Z,4.10
2023-02-02T00:15:24.450Z,4.10
2023-02-02T00:17:53.421Z,4.10
2023-02-02T00:20:24.612Z,4.10
2023-02-02T00:22:53.132Z,4.10
2023-02-02T00:25:22.042Z,4.10
2023-02-02T00:27:52.167Z,4.10
2023-02-02T00:30:21.586Z,4.10
2023-02-02T00:32:52.617Z,4.20
2023-02-02T00:35:22.962Z,4.20
2023-02-02T00:37:51.348Z,4.20
2023-02-02T00:40:20.298Z,4.20
2023-02-02T00:42:51.061Z,4.30
2023-02-02T00:45:20.304Z,4.20
2023-02-02T00:47:50.235Z,4.20
2023-02-02T00:50:20.788Z,4.30
2023-02-02T00:52:49.983Z,4.30
2023-02-02T00:55:19.180Z,4.30
2023-02-02T00:57:47.650Z,4.30
2023-02-02T01:00:18.373Z,4.20
2023-02-02T01:02:49.219Z,4.20
2023-02-02T01:05:18.732Z,4.20
2023-02-02T01:07:47.651Z,4.20
2023-02-02T01:10:16.912Z,4.20
2023-02-02T01:12:45.782Z,4.20
2023-02-02T01:15:14.119Z,4.20
2023-02-02T01:17:42.306Z,4.20
2023-02-02T01:20:16.979Z,4.20
2023-02-02T01:22:46.107Z,4.20
2023-02-02T01:25:15.226Z,4.20
2023-02-02T01:27:43.862Z,4.20
2023-02-02T01:30:13.610Z,4.30
2023-02-02T01:32:42.091Z,4.20
2023-02-02T01:35:12.488Z,4.30
2023-02-02T01:37:41.427Z,4.30
2023-02-02T01:40:11.069Z,4.40
2023-02-02T01:42:39.875Z,4.40
2023-02-02T01:45:29.176Z,4.40
2023-02-02T01:48:00.019Z,4.40
2023-02-02T01:50:31.937Z,4.40
2023-02-02T01:53:01.777Z,4.30
2023-02-02T01:55:31.699Z,4.30
2023-02-02T01:58:02.273Z,4.30
2023-02-02T02:00:30.899Z,4.30
2023-02-02T02:03:02.890Z,4.30
2023-02-02T02:05:33.945Z,4.20
2023-02-02T02:08:05.619Z,4.30
2023-02-02T02:10:35.366Z,4.30
2023-02-02T02:13:04.170Z,4.30
2023-02-02T02:15:52.190Z,4.30
2023-02-02T02:18:27.230Z,4.30
2023-02-02T02:21:32.347Z,4.30
2023-02-02T02:24:42.738Z,4.30
2023-02-02T02:27:25.053Z,4.30
2023-02-02T02:30:10.886Z,4.30
2023-02-02T02:32:43.701Z,4.30
2023-02-02T02:35:15.855Z,4.30
2023-02-02T02:37:48.673Z,4.30
2023-02-02T02:40:20.499Z,4.30
2023-02-02T02:42:51.870Z,4.30
2023-02-02T02:45:21.137Z,4.30
2023-02-02T02:47:52.361Z,4.30
2023-02-02T02:50:21.152Z,4.40
2023-02-02T02:52:50.901Z,4.40
2023-02-02T02:55:20.368Z,4.40
2023-02-02T02:57:58.127Z,4.40
2023-02-02T03:00:34.092Z,4.40
2023-02-02T03:03:07.064Z,4.50
2023-02-02T03:05:40.989Z,4.40
2023-02-02T03:08:12.499Z,4.50
2023-02-02T03:10:42.895Z,4.50
2023-02-02T03:13:12.179Z,4.50
2023-02-02T03:15:42.603Z,4.60
2023-02-02T03:18:13.456Z,4.60
2023-02-02T03:20:41.927Z,4.60
2023-02-02T03:23:10.102Z,4.60
2023-02-02T03:25:38.903Z,4.60
2023-02-02T03:28:08.050Z,4.60
2023-02-02T03:30:37.810Z,4.60
2023-02-02T03:33:07.056Z,4.60
2023-02-02T03:35:37.298Z,4.60
2023-02-02T03:38:05.765Z,4.60
2023-02-02T03:40:34.409Z,4.60
2023-02-02T03:43:03.031Z,4.60
2023-02-02T03:45:32.322Z,4.60
2023-02-02T03:48:00.468Z,4.60
2023-02-02T03:50:28.913Z,4.70
2023-02-02T03:52:58.988Z,4.70
2023-02-02T03:55:27.628Z,4.60
2023-02-02T03:57:56.426Z,4.70
2023-02-02T04:00:25.071Z,4.70
2023-02-02T04:02:55.812Z,4.70
2023-02-02T04:05:24.851Z,4.70
2023-02-02T04:07:53.876Z,4.60
2023-02-02T04:10:23.848Z,4.70
2023-02-02T04:12:53.463Z,4.60
2023-02-02T04:15:22.291Z,4.60
2023-02-02T04:17:51.245Z,4.50
2023-02-02T04:20:20.339Z,4.60
2023-02-02T04:22:48.779Z,4.50
2023-02-02T04:25:18.249Z,4.50
2023-02-02T04:27:48.341Z,4.50
2023-02-02T04:30:20.865Z,4.50
2023-02-02T04:32:49.450Z,4.50
2023-02-02T04:35:18.598Z,4.50
2023-02-02T04:37:47.211Z,4.50
2023-02-02T04:40:16.489Z,4.50
2023-02-02T04:42:45.621Z,4.50
2023-02-02T04:45:15.941Z,4.50
2023-02-02T04:47:44.498Z,4.60
2023-02-02T04:50:13.991Z,4.50
2023-02-02T04:52:42.991Z,4.50
2023-02-02T04:55:14.756Z,4.50
2023-02-02T04:57:44.679Z,4.50
2023-02-02T05:00:14.478Z,4.50
2023-02-02T05:02:44.851Z,4.60
2023-02-02T05:05:14.345Z,4.50
2023-02-02T05:07:43.089Z,4.50
2023-02-02T05:10:12.561Z,4.50
2023-02-02T05:12:40.916Z,4.50
2023-02-02T05:15:09.592Z,4.50
2023-02-02T05:17:37.869Z,4.40
2023-02-02T05:20:08.967Z,4.50
2023-02-02T05:22:37.601Z,4.40
2023-02-02T05:25:06.871Z,4.40
2023-02-02T05:27:36.145Z,4.40
2023-02-02T05:30:05.281Z,4.40
2023-02-02T05:32:34.383Z,4.40
2023-02-02T05:35:03.221Z,4.50
2023-02-02T05:37:33.280Z,4.50
2023-02-02T05:40:02.102Z,4.50
2023-02-02T05:42:30.787Z,4.50
2023-02-02T05:44:59.370Z,4.50
2023-02-02T05:47:28.151Z,4.50
2023-02-02T05:49:59.663Z,4.50
2023-02-02T05:52:29.101Z,4.50
2023-02-02T05:54:59.019Z,4.50
2023-02-02T05:57:28.333Z,4.50
2023-02-02T05:59:56.945Z,4.50
2023-02-02T06:02:25.753Z,4.30
2023-02-02T06:04:54.597Z,4.50
2023-02-02T06:07:23.185Z,4.50
2023-02-02T06:09:51.830Z,4.50
2023-02-02T06:12:21.961Z,4.40
2023-02-02T06:14:54.066Z,4.40
2023-02-02T06:17:22.546Z,4.30
2023-02-02T06:19:51.501Z,4.30
2023-02-02T06:22:20.621Z,4.30
2023-02-02T06:24:49.196Z,4.20
2023-02-02T06:27:23.046Z,4.30
2023-02-02T06:29:53.109Z,4.30
2023-02-02T06:32:22.384Z,4.30
2023-02-02T06:34:51.189Z,4.30
2023-02-02T06:37:19.830Z,4.30
2023-02-02T06:39:48.194Z,4.20
2023-02-02T06:42:21.630Z,4.20
2023-02-02T06:44:52.489Z,4.30
2023-02-02T06:47:21.412Z,4.30
2023-02-02T06:49:50.158Z,4.40
2023-02-02T06:52:18.770Z,4.40
2023-02-02T06:54:47.657Z,4.30
2023-02-02T06:57:16.926Z,4.40
2023-02-02T06:59:45.450Z,4.40
2023-02-02T07:02:15.919Z,4.40
2023-02-02T07:04:44.942Z,4.50
2023-02-02T07:07:13.749Z,4.50
2023-02-02T07:09:42.705Z,4.50
2023-02-02T07:12:12.301Z,4.50
2023-02-02T07:14:41.580Z,4.50
2023-02-02T07:17:10.218Z,4.50
2023-02-02T07:19:40.306Z,4.50
2023-02-02T07:22:09.421Z,4.60
2023-02-02T07:24:38.673Z,4.60
2023-02-02T07:27:10.724Z,4.60
2023-02-02T07:29:39.524Z,4.60
2023-02-02T07:32:08.512Z,4.60
2023-02-02T07:34:40.628Z,4.60
2023-02-02T07:37:09.461Z,4.60
2023-02-02T07:39:38.422Z,4.60
2023-02-02T07:42:08.951Z,4.60
2023-02-02T07:44:37.678Z,4.70
2023-02-02T07:47:06.861Z,4.70
2023-02-02T07:49:36.273Z,4.70
2023-02-02T07:52:07.193Z,4.70
2023-02-02T07:54:35.810Z,4.80
2023-02-02T07:57:05.161Z,4.80
2023-02-02T07:59:34.061Z,4.80
2023-02-02T08:02:07.832Z,4.90
2023-02-02T08:04:36.651Z,4.90
2023-02-02T08:07:06.707Z,4.90
2023-02-02T08:09:35.672Z,5.00
2023-02-02T08:12:04.472Z,5.00
2023-02-02T08:14:33.154Z,5.00
2023-02-02T08:17:02.695Z,5.00
2023-02-02T08:19:31.502Z,5.00
2023-02-02T08:22:00.321Z,5.10
2023-02-02T08:24:30.231Z,5.10
2023-02-02T08:26:58.570Z,5.10
2023-02-02T08:29:26.892Z,5.10
2023-02-02T08:31:55.703Z,5.10
2023-02-02T08:34:24.311Z,5.20
2023-02-02T08:36:52.622Z,5.30
2023-02-02T08:39:21.473Z,5.30
2023-02-02T08:41:51.660Z,5.40
2023-02-02T08:44:20.793Z,5.40
2023-02-02T08:46:52.812Z,5.40
2023-02-02T08:49:21.419Z,5.40
2023-02-02T08:51:50.110Z,5.50
2023-02-02T08:54:18.887Z,5.50
2023-02-02T08:56:47.668Z,5.50
2023-02-02T08:59:18.013Z,5.50
2023-02-02T09:01:46.537Z,5.60
2023-02-02T09:04:16.470Z,5.60
2023-02-02T09:06:45.923Z,5.60
2023-02-02T09:09:15.980Z,5.60
2023-02-02T09:11:44.993Z,5.60
2023-02-02T09:14:14.559Z,5.60
2023-02-02T09:16:46.561Z,5.60
2023-02-02T09:19:15.416Z,5.60
2023-02-02T09:21:44.217Z,5.60
2023-02-02T09:24:13.708Z,5.70
2023-02-02T09:26:43.223Z,5.80
2023-02-02T09:29:13.309Z,5.80
2023-02-02T09:31:41.957Z,5.90
2023-02-02T09:34:13.105Z,6.00
2023-02-02T09:36:42.222Z,6.00
2023-02-02T09:39:13.095Z,6.10
2023-02-02T09:42:00.807Z,6.20
2023-02-02T09:44:37.263Z,6.20
2023-02-02T09:47:10.222Z,6.20
2023-02-02T09:49:41.591Z,6.20
2023-02-02T09:52:14.079Z,6.20
2023-02-02T09:54:44.486Z,6.20
2023-02-02T09:57:15.505Z,6.20
2023-02-02T09:59:44.806Z,6.10
2023-02-02T10:02:16.976Z,6.10
2023-02-02T10:04:49.144Z,6.10
2023-02-02T10:07:18.902Z,6.10
2023-02-02T10:09:49.179Z,6.20
2023-02-02T10:12:23.228Z,6.20
2023-02-02T10:14:54.838Z,6.20
2023-02-02T10:17:28.501Z,6.30
2023-02-02T10:20:04.560Z,6.20
2023-02-02T10:22:34.584Z,6.30
2023-02-02T10:25:03.549Z,6.40
2023-02-02T10:27:37.468Z,6.50
2023-02-02T10:30:13.607Z,6.50
2023-02-02T10:32:47.525Z,6.50
2023-02-02T10:35:28.556Z,6.50
2023-02-02T10:37:59.824Z,6.50
2023-02-02T10:40:34.722Z,6.50
2023-02-02T10:43:41.154Z,6.60
2023-02-02T10:46:13.024Z,6.60
2023-02-02T10:48:42.915Z,6.60
2023-02-02T10:51:18.670Z,6.60
2023-02-02T10:53:50.620Z,6.60
2023-02-02T10:56:21.580Z,6.60
2023-02-02T10:58:53.568Z,6.80
2023-02-02T11:01:23.199Z,6.50
2023-02-02T11:04:12.295Z,6.50
2023-02-02T11:06:50.162Z,6.50
2023-02-02T11:09:20.746Z,6.50
2023-02-02T11:11:52.539Z,6.50
2023-02-02T11:14:24.074Z,6.50
2023-02-02T11:17:01.560Z,6.50
2023-02-02T11:19:30.936Z,6.50
2023-02-02T11:22:03.153Z,6.60
2023-02-02T11:24:36.630Z,6.60
2023-02-02T11:27:06.872Z,6.60
2023-02-02T11:29:38.924Z,6.60
2023-02-02T11:32:20.849Z,6.70
2023-02-02T11:34:49.370Z,6.80
2023-02-02T11:37:23.305Z,6.80
2023-02-02T11:39:53.801Z,6.90
2023-02-02T11:42:24.158Z,6.80
2023-02-02T11:44:54.340Z,6.90
2023-02-02T11:47:24.044Z,6.90
2023-02-02T11:49:53.290Z,6.90
2023-02-02T11:52:24.686Z,6.80
2023-02-02T11:54:54.393Z,6.90
2023-02-02T11:57:23.348Z,6.90
2023-02-02T11:59:52.520Z,7.00
2023-02-02T12:02:24.871Z,7.00
2023-02-02T12:04:54.529Z,7.10
2023-02-02T12:07:29.575Z,7.10
2023-02-02T12:10:00.789Z,7.20
2023-02-02T12:12:37.600Z,7.10
2023-02-02T12:15:11.015Z,7.00
2023-02-02T12:17:41.932Z,7.00
2023-02-02T12:20:15.299Z,6.90
2023-02-02T12:22:55.059Z,6.90
2023-02-02T12:25:33.852Z,6.90
2023-02-02T12:28:05.447Z,6.80
2023-02-02T12:30:38.159Z,6.80
2023-02-02T12:33:13.950Z,6.80
2023-02-02T12:35:49.911Z,6.90
2023-02-02T12:38:23.056Z,7.00
2023-02-02T12:41:06.304Z,7.00
2023-02-02T12:43:39.233Z,7.00
2023-02-02T12:46:14.621Z,6.90
2023-02-02T12:48:53.891Z,7.00
2023-02-02T12:51:29.744Z,7.10
2023-02-02T12:54:33.412Z,7.40
2023-02-02T12:57:03.812Z,7.50
2023-02-02T12:59:45.080Z,7.60
2023-02-02T13:02:19.502Z,7.60
2023-02-02T13:04:53.605Z,7.50
2023-02-02T13:07:35.425Z,7.40
2023-02-02T13:10:11.096Z,7.50
2023-02-02T13:12:42.937Z,7.60
2023-02-02T13:15:13.646Z,7.60
2023-02-02T13:17:44.861Z,7.60
2023-02-02T13:20:20.063Z,7.40
2023-02-02T13:22:50.135Z,7.20
2023-02-02T13:25:22.672Z,7.10
2023-02-02T13:27:52.781Z,7.00
2023-02-02T13:30:27.188Z,6.90
2023-02-02T13:32:58.677Z,6.90
2023-02-02T13:35:31.310Z,7.00
2023-02-02T13:38:04.595Z,6.90
2023-02-02T13:40:37.148Z,6.90
2023-02-02T13:43:10.306Z,7.00
2023-02-02T13:45:45.617Z,6.90
2023-02-02T13:48:18.491Z,6.90
2023-02-02T13:50:49.690Z,6.80
2023-02-02T13:53:30.423Z,6.70
2023-02-02T13:56:06.813Z,6.60
2023-02-02T13:58:41.451Z,6.50
2023-02-02T14:01:11.662Z,6.40
2023-02-02T14:03:41.135Z,6.30
2023-02-02T14:06:12.244Z,6.30
2023-02-02T14:08:46.421Z,6.20
2023-02-02T14:11:22.078Z,6.20
2023-02-02T14:14:09.367Z,6.20
2023-02-02T14:16:45.714Z,6.20
2023-02-02T14:19:18.185Z,6.10
2023-02-02T14:22:06.347Z,6.20
2023-02-02T14:24:42.434Z,6.20
2023-02-02T14:27:29.566Z,6.20
2023-02-02T14:30:02.319Z,6.30
2023-02-02T14:32:32.502Z,6.30
2023-02-02T14:35:01.262Z,6.40
2023-02-02T14:37:36.230Z,6.40
2023-02-02T14:40:21.272Z,6.40
2023-02-02T14:43:15.537Z,6.40
2023-02-02T14:45:46.390Z,6.50
2023-02-02T14:48:18.928Z,6.50
2023-02-02T14:50:50.398Z,6.50
2023-02-02T14:53:24.321Z,6.50
2023-02-02T14:55:56.000Z,6.50
2023-02-02T14:58:28.439Z,6.50
2023-02-02T15:01:00.102Z,6.50
2023-02-02T15:03:48.421Z,6.40
2023-02-02T15:06:27.129Z,6.30
2023-02-02T15:09:13.866Z,6.40
2023-02-02T15:12:00.587Z,6.40
2023-02-02T15:14:33.117Z,6.30
2023-02-02T15:17:05.984Z,6.30
2023-02-02T15:19:37.331Z,6.20
2023-02-02T15:22:14.434Z,6.20
2023-02-02T15:24:45.988Z,6.20
2023-02-02T15:27:17.228Z,6.20
2023-02-02T15:29:46.604Z,6.20
2023-02-02T15:32:19.521Z,6.20
2023-02-02T15:34:49.601Z,6.20
2023-02-02T15:37:21.771Z,6.20
2023-02-02T15:39:53.830Z,6.10
2023-02-02T15:42:40.970Z,6.10
2023-02-02T15:45:30.525Z,6.10
2023-02-02T15:48:01.768Z,6.10
2023-02-02T15:50:29.790Z,6.10
2023-02-02T15:52:59.091Z,6.00
2023-02-02T15:55:32.721Z,6.10
2023-02-02T15:58:01.351Z,5.90
2023-02-02T16:00:31.179Z,5.80
2023-02-02T16:03:03.279Z,5.70
2023-02-02T16:05:46.777Z,5.70
2023-02-02T16:08:19.155Z,5.70
2023-02-02T16:10:49.174Z,5.60
2023-02-02T16:13:24.695Z,5.60
2023-02-02T16:15:56.705Z,5.50
2023-02-02T16:18:27.012Z,5.40
2023-02-02T16:20:56.380Z,5.40
2023-02-02T16:23:29.182Z,5.40
2023-02-02T16:25:59.215Z,5.30
2023-02-02T16:28:28.676Z,5.30
2023-02-02T16:31:00.343Z,5.30
2023-02-02T16:33:31.862Z,5.30
2023-02-02T16:35:59.920Z,5.30
2023-02-02T16:38:31.796Z,5.40
2023-02-02T16:41:03.485Z,5.40
2023-02-02T16:43:31.810Z,5.30
2023-02-02T16:46:01.242Z,5.30
2023-02-02T16:48:36.349Z,5.30
2023-02-02T16:51:24.705Z,5.40
2023-02-02T16:53:58.862Z,5.40
2023-02-02T16:56:30.276Z,5.40
2023-02-02T16:58:59.924Z,5.40
2023-02-02T17:01:39.910Z,5.40
2023-02-02T17:04:17.940Z,5.30
2023-02-02T17:06:52.848Z,5.30
2023-02-02T17:09:41.277Z,5.20
2023-02-02T17:12:33.689Z,5.20
2023-02-02T17:15:06.172Z,5.10
2023-02-02T17:17:35.021Z,5.10
2023-02-02T17:20:06.071Z,5.00
2023-02-02T17:22:38.643Z,5.00
2023-02-02T17:25:07.339Z,5.00
2023-02-02T17:27:36.285Z,5.00
2023-02-02T17:30:05.887Z,5.20
2023-02-02T17:32:34.096Z,5.00
2023-02-02T17:35:02.271Z,5.00
2023-02-02T17:41:02.103Z,5.00
2023-02-02T17:43:30.381Z,5.00
2023-02-02T17:45:58.510Z,5.00
2023-02-02T17:48:26.664Z,4.90
2023-02-02T17:50:54.700Z,4.90
2023-02-02T17:53:23.499Z,5.00
2023-02-02T17:55:52.130Z,4.90
2023-02-02T19:12:41.656Z,4.20
2023-02-02T19:15:12.065Z,4.20
2023-02-02T19:17:40.567Z,4.20
2023-02-02T19:20:17.971Z,4.10
2023-02-02T19:22:46.424Z,4.20
2023-02-02T19:25:14.749Z,4.10
2023-02-02T19:27:44.457Z,4.10
2023-02-02T19:30:18.125Z,4.10
2023-02-02T19:32:46.844Z,4.10
2023-02-02T19:35:20.108Z,4.10
2023-02-02T19:37:49.374Z,4.10
2023-02-02T19:40:22.194Z,4.00
2023-02-02T19:42:55.443Z,4.00
2023-02-02T19:45:24.924Z,4.00
2023-02-02T19:48:20.981Z,4.00
2023-02-02T19:51:09.903Z,4.00
2023-02-02T19:53:39.655Z,4.00
2023-02-02T19:56:22.871Z,4.00
2023-02-02T19:58:52.323Z,4.10
2023-02-02T20:01:21.684Z,4.00
2023-02-02T20:03:51.139Z,4.00
2023-02-02T20:06:23.382Z,4.00
2023-02-02T20:08:52.993Z,4.10
2023-02-02T20:11:32.501Z,4.00
2023-02-02T20:14:03.087Z,4.00
2023-02-02T20:16:37.624Z,4.10
2023-02-02T20:19:28.207Z,4.10
2023-02-02T20:21:57.571Z,4.10
2023-02-02T20:24:26.452Z,4.10
2023-02-02T20:26:55.629Z,4.10
2023-02-02T20:29:27.352Z,4.10
2023-02-02T20:31:56.681Z,4.10
2023-02-02T20:34:26.634Z,4.10
2023-02-02T20:36:56.988Z,4.10
2023-02-02T20:39:30.117Z,4.10
2023-02-02T20:41:59.122Z,4.10
2023-02-02T20:44:29.987Z,4.40
2023-02-02T20:47:00.356Z,4.20
2023-02-02T20:49:28.719Z,4.10
2023-02-02T20:51:57.689Z,4.20
2023-02-02T20:54:26.214Z,4.20
2023-02-02T20:56:54.435Z,4.10
2023-02-02T20:59:23.044Z,4.20
2023-02-02T21:01:53.112Z,4.10
2023-02-02T21:04:21.745Z,4.10
2023-02-02T21:06:50.365Z,4.20
2023-02-02T21:09:18.718Z,4.20
2023-02-02T21:11:46.868Z,4.20
2023-02-02T21:14:15.652Z,4.20
2023-02-02T21:16:44.442Z,4.20
2023-02-02T21:19:14.060Z,4.20
2023-02-02T21:21:42.184Z,4.20
2023-02-02T21:24:10.800Z,4.20
2023-02-02T21:26:39.047Z,4.10
2023-02-02T21:29:07.521Z,4.10
2023-02-02T21:31:37.554Z,4.10
2023-02-02T21:34:05.803Z,4.10
2023-02-02T21:36:36.792Z,4.10
2023-02-02T21:39:15.584Z,4.20
2023-02-02T21:41:53.187Z,4.20
2023-02-02T21:44:35.744Z,4.20
2023-02-02T21:47:14.993Z,4.20
2023-02-02T21:49:47.499Z,4.20
2023-02-02T21:52:27.049Z,4.20
2023-02-02T21:55:03.105Z,4.20
2023-02-02T21:57:44.700Z,4.20
2023-02-02T22:00:22.305Z,4.20
2023-02-02T22:02:53.756Z,4.20
2023-02-02T22:05:30.933Z,4.20
2023-02-02T22:08:25.002Z,4.10
2023-02-02T22:11:17.015Z,4.10
2023-02-02T22:14:02.272Z,4.10
2023-02-02T22:19:48.146Z,4.10
2023-02-02T22:22:53.092Z,4.10
2023-02-02T22:25:41.515Z,4.10
2023-02-02T22:28:33.800Z,4.10
2023-02-02T22:31:09.520Z,4.10
2023-02-02T22:33:51.053Z,4.00
2023-02-02T22:36:38.749Z,4.00
2023-02-02T22:39:14.761Z,3.90
2023-02-02T22:41:51.889Z,3.90
2023-02-02T22:44:49.577Z,3.90
2023-02-02T22:47:39.555Z,4.00
2023-02-02T22:53:13.099Z,3.90
2023-02-02T22:55:58.394Z,3.90
2023-02-02T22:58:42.078Z,3.90
2023-02-02T23:01:15.119Z,3.80
2023-02-02T23:03:48.884Z,3.80
2023-02-02T23:06:42.831Z,3.80
2023-02-02T23:09:15.721Z,3.70
2023-02-02T23:17:43.225Z,3.70
2023-02-02T23:20:22.157Z,3.70
2023-02-02T23:23:12.332Z,3.70
2023-02-02T23:25:43.178Z,3.70
2023-02-02T23:28:29.986Z,3.70
2023-02-02T23:31:28.325Z,3.60
2023-02-02T23:34:01.747Z,3.60
2023-02-02T23:36:39.246Z,3.80
2023-02-02T23:39:19.588Z,3.50
2023-02-02T23:41:49.736Z,3.50
2023-02-02T23:44:25.770Z,3.50
2023-02-02T23:50:16.866Z,3.50
2023-02-02T23:52:49.107Z,3.50
2023-02-02T23:55:31.715Z,3.50
2023-02-02T23:58:02.576Z,3.60
